Time;durP1;ratioP1;P1;durP2;ratioP2;P2;SDS_P1;SDS_P2;PMS_P1;PMS_P2;Temp;Humidity;BMP_temperature;BMP_pressure;BME280_temperature;BME280_humidity;BME280_pressure;Samples;Min_cycle;Max_cycle;Signal;HPM_P1;HPM_P2
2022/05/13 00:02:22;;;;;;;6.93;4.10;;;16.30;99.90;;;;;;5057716;28;20177;-81
2022/05/13 00:04:48;;;;;;;6.13;4.20;;;16.20;99.90;;;;;;5075777;28;20203;-81
2022/05/13 00:07:14;;;;;;;5.10;4.07;;;;;;;;;;5057699;28;20593;-81
2022/05/13 00:09:59;;;;;;;10.77;3.80;;;16.30;99.90;;;;;;5057888;28;20173;-81
2022/05/13 00:12:26;;;;;;;6.73;4.07;;;16.30;99.90;;;;;;5057982;28;20165;-81
2022/05/13 00:14:53;;;;;;;4.33;3.83;;;16.30;99.90;;;;;;5058222;28;20196;-81
2022/05/13 00:17:20;;;;;;;7.40;4.60;;;16.30;99.90;;;;;;5076196;28;20176;-81
2022/05/13 00:19:45;;;;;;;6.73;4.33;;;16.30;99.90;;;;;;5076747;28;20176;-81
2022/05/13 00:22:12;;;;;;;8.93;5.33;;;;;;;;;;5077784;28;20177;-81
2022/05/13 00:24:38;;;;;;;7.30;4.20;;;16.30;99.90;;;;;;5058097;28;20208;-81
2022/05/13 00:27:05;;;;;;;7.00;4.03;;;16.40;99.90;;;;;;5075854;28;20203;-81
2022/05/13 00:29:30;;;;;;;9.07;4.00;;;16.30;99.90;;;;;;5057319;28;20260;-81
2022/05/13 00:31:56;;;;;;;6.67;4.47;;;16.30;99.90;;;;;;5057635;28;20220;-82
2022/05/13 00:34:22;;;;;;;6.37;4.57;;;16.10;99.90;;;;;;5075100;28;20230;-81
2022/05/13 00:36:48;;;;;;;9.80;5.13;;;16.00;99.90;;;;;;5057009;28;20311;-81
2022/05/13 00:39:13;;;;;;;6.20;4.53;;;15.80;99.90;;;;;;5074767;28;20645;-81
2022/05/13 00:41:40;;;;;;;7.33;4.53;;;15.70;99.90;;;;;;5075728;28;20275;-81
2022/05/13 00:44:07;;;;;;;6.13;4.60;;;15.60;99.90;;;;;;5060632;28;20225;-81
2022/05/13 00:46:33;;;;;;;9.97;4.97;;;15.60;99.90;;;;;;5078277;28;20192;-81
2022/05/13 00:49:02;;;;;;;10.03;5.70;;;15.50;99.90;;;;;;5078406;28;20218;-82
2022/05/13 00:51:32;;;;;;;8.07;5.63;;;15.40;99.90;;;;;;5077992;28;20234;-81
2022/05/13 00:53:59;;;;;;;6.83;4.43;;;15.40;99.90;;;;;;5078158;28;20243;-81
2022/05/13 00:56:25;;;;;;;10.33;4.87;;;15.40;99.90;;;;;;5059956;28;20177;-81
2022/05/13 00:58:56;;;;;;;7.30;4.73;;;15.40;99.90;;;;;;5077935;28;20169;-82
2022/05/13 01:01:22;;;;;;;7.10;4.67;;;15.40;99.90;;;;;;5059681;28;20178;-82
2022/05/13 01:03:49;;;;;;;9.63;4.50;;;15.30;99.90;;;;;;5077380;28;20243;-81
2022/05/13 01:06:20;;;;;;;6.10;4.37;;;15.30;99.90;;;;;;5059398;28;20200;-81
2022/05/13 01:08:47;;;;;;;7.67;4.53;;;15.30;99.90;;;;;;5077209;28;20210;-82
2022/05/13 01:11:19;;;;;;;8.63;4.90;;;15.30;99.90;;;;;;5077412;28;20252;-82
2022/05/13 01:13:49;;;;;;;7.53;4.67;;;15.30;99.90;;;;;;5081553;28;20212;-82
2022/05/13 01:16:15;;;;;;;8.10;4.57;;;15.30;99.90;;;;;;5079852;28;20214;-82
2022/05/13 01:18:43;;;;;;;11.30;4.57;;;15.30;99.90;;;;;;5061528;28;20181;-82
2022/05/13 01:21:11;;;;;;;5.73;4.90;;;15.20;99.90;;;;;;5061351;28;20177;-81
2022/05/13 01:23:40;;;;;;;6.03;4.97;;;15.30;99.90;;;;;;5079909;28;20203;-82
2022/05/13 01:26:19;;;;;;;6.40;4.43;;;15.30;99.90;;;;;;5061025;28;20673;-81
2022/05/13 01:28:49;;;;;;;7.47;4.77;;;15.30;99.90;;;;;;5061860;28;20201;-82
2022/05/13 01:31:22;;;;;;;6.17;4.37;;;15.30;99.90;;;;;;5079593;28;20192;-82
2022/05/13 01:33:47;;;;;;;7.57;5.13;;;15.40;99.90;;;;;;5079213;28;20189;-81
2022/05/13 01:36:13;;;;;;;7.93;4.73;;;15.40;99.90;;;;;;5061131;28;20249;-82
2022/05/13 01:38:40;;;;;;;6.27;5.33;;;15.40;99.90;;;;;;5080370;28;20176;-81
2022/05/13 01:41:08;;;;;;;6.40;4.73;;;15.40;99.90;;;;;;5060582;28;20181;-81
2022/05/13 01:43:35;;;;;;;6.50;4.40;;;15.40;99.90;;;;;;5060599;28;20200;-81
2022/05/13 01:46:01;;;;;;;5.93;5.00;;;15.30;99.90;;;;;;5060086;28;20677;-82
2022/05/13 01:48:28;;;;;;;8.47;4.80;;;15.40;99.90;;;;;;5060488;28;20184;-81
2022/05/13 01:50:53;;;;;;;10.70;4.47;;;15.40;99.90;;;;;;5061099;28;20216;-82
2022/05/13 01:53:19;;;;;;;8.23;5.00;;;15.40;99.90;;;;;;5077563;28;20193;-81
2022/05/13 01:55:45;;;;;;;9.83;4.80;;;15.40;99.90;;;;;;5078526;28;20247;-81
2022/05/13 01:58:17;;;;;;;4.93;3.90;;;15.40;99.90;;;;;;5078124;28;20558;-81
2022/05/13 02:00:44;;;;;;;5.43;4.53;;;15.40;99.90;;;;;;5078985;28;20583;-82
2022/05/13 02:05:55;;;;;;;9.37;4.27;;;15.30;99.90;;;;;;5078557;28;20673;-81
2022/05/13 02:08:21;;;;;;;6.67;4.40;;;15.20;99.90;;;;;;5077305;28;20165;-81
2022/05/13 02:10:47;;;;;;;7.27;4.87;;;15.20;99.90;;;;;;5059465;28;20173;-81
2022/05/13 02:13:14;;;;;;;6.80;5.17;;;15.20;99.90;;;;;;5059524;28;20212;-82
2022/05/13 02:15:40;;;;;;;7.30;4.93;;;15.20;99.90;;;;;;5060357;28;20272;-81
2022/05/13 02:18:07;;;;;;;6.47;5.30;;;15.20;99.90;;;;;;5077683;28;20248;-82
2022/05/13 02:20:33;;;;;;;11.90;5.43;;;15.20;99.90;;;;;;5059415;28;20268;-81
2022/05/13 02:22:59;;;;;;;6.83;5.10;;;;;;;;;;5058987;28;20200;-81
2022/05/13 02:25:25;;;;;;;10.27;4.73;;;15.10;99.90;;;;;;5059345;28;20218;-81
2022/05/13 02:27:51;;;;;;;8.67;5.03;;;15.00;99.90;;;;;;5077539;28;20196;-81
2022/05/13 02:30:17;;;;;;;10.20;5.27;;;;;;;;;;5058651;28;20173;-81
2022/05/13 02:32:43;;;;;;;6.73;5.47;;;;;;;;;;5059545;28;20177;-81
2022/05/13 02:35:09;;;;;;;7.37;4.87;;;15.00;99.90;;;;;;5058680;28;20189;-81
2022/05/13 02:37:35;;;;;;;5.63;4.77;;;15.00;99.90;;;;;;5076391;28;20187;-81
2022/05/13 02:40:01;;;;;;;6.07;4.93;;;;;;;;;;5075892;28;20180;-81
2022/05/13 02:42:27;;;;;;;7.73;4.27;;;15.00;99.90;;;;;;5076186;28;20187;-80
2022/05/13 02:44:53;;;;;;;7.07;4.50;;;14.90;99.90;;;;;;5075977;28;20607;-81
2022/05/13 02:47:19;;;;;;;5.87;4.70;;;;;;;;;;5075981;28;20254;-81
2022/05/13 02:49:44;;;;;;;9.40;4.87;;;14.80;99.90;;;;;;5057841;28;20178;-81
2022/05/13 02:52:11;;;;;;;5.57;4.63;;;14.70;99.90;;;;;;5076060;28;20720;-81
2022/05/13 02:54:37;;;;;;;5.83;4.90;;;14.80;99.90;;;;;;5075847;28;20197;-81
2022/05/13 02:57:03;;;;;;;6.23;4.73;;;14.80;99.90;;;;;;5075931;28;20179;-81
2022/05/13 02:59:29;;;;;;;8.27;5.13;;;;;;;;;;5075563;28;20182;-81
2022/05/13 03:01:54;;;;;;;8.27;4.60;;;14.80;99.90;;;;;;5057978;28;20189;-81
2022/05/13 03:04:22;;;;;;;7.80;5.07;;;14.70;99.90;;;;;;5075385;28;20194;-80
2022/05/13 03:06:49;;;;;;;7.57;4.63;;;14.70;99.90;;;;;;5075117;28;20283;-81
2022/05/13 03:09:15;;;;;;;8.37;5.43;;;14.70;99.90;;;;;;5074898;28;20177;-81
2022/05/13 03:11:41;;;;;;;6.00;5.30;;;;;;;;;;5075634;28;20181;-80
2022/05/13 03:14:07;;;;;;;6.33;4.90;;;;;;;;;;5056809;28;20686;-81
2022/05/13 03:16:33;;;;;;;7.73;5.60;;;14.70;99.90;;;;;;5074311;28;20177;-81
2022/05/13 03:18:59;;;;;;;7.53;5.60;;;14.70;99.90;;;;;;5074616;28;20261;-81
2022/05/13 03:21:26;;;;;;;7.70;5.20;;;14.70;99.90;;;;;;5060220;28;20180;-81
2022/05/13 03:23:52;;;;;;;6.47;5.63;;;14.70;99.90;;;;;;5076647;28;20207;-81
2022/05/13 03:26:20;;;;;;;6.30;5.27;;;14.70;99.90;;;;;;5058527;28;20250;-81
2022/05/13 03:28:46;;;;;;;5.80;4.77;;;14.60;99.90;;;;;;5059045;28;20708;-81
2022/05/13 03:31:12;;;;;;;8.30;5.50;;;14.60;99.90;;;;;;5058212;28;20195;-81
2022/05/13 03:33:38;;;;;;;9.87;5.67;;;14.60;99.90;;;;;;5076333;28;20533;-81
2022/05/13 03:36:05;;;;;;;6.47;4.73;;;14.60;99.90;;;;;;5058405;28;20234;-81
2022/05/13 03:38:31;;;;;;;5.53;4.60;;;14.60;99.90;;;;;;5076692;28;20175;-81
2022/05/13 03:40:56;;;;;;;8.47;4.53;;;14.50;99.90;;;;;;5076307;28;20173;-81
2022/05/13 03:43:22;;;;;;;5.73;4.40;;;;;;;;;;5058540;28;20204;-81
2022/05/13 03:45:48;;;;;;;6.67;4.83;;;14.50;99.90;;;;;;5058355;28;20181;-81
2022/05/13 03:48:14;;;;;;;7.83;5.10;;;14.60;99.90;;;;;;5058447;28;20177;-81
2022/05/13 03:50:42;;;;;;;7.53;5.47;;;14.50;99.90;;;;;;5057895;28;20243;-81
2022/05/13 03:53:08;;;;;;;7.93;4.90;;;14.50;99.90;;;;;;5076501;28;20283;-81
2022/05/13 03:55:35;;;;;;;5.40;4.87;;;14.50;99.90;;;;;;5058974;28;20223;-81
2022/05/13 03:58:01;;;;;;;4.97;4.50;;;14.50;99.90;;;;;;5076771;28;20701;-81
2022/05/13 04:00:27;;;;;;;6.97;5.30;;;;;;;;;;5059017;28;20223;-82
2022/05/13 04:02:53;;;;;;;7.33;4.90;;;14.60;99.90;;;;;;5076821;28;20245;-81
2022/05/13 04:10:48;;;;;;;5.27;4.30;;;14.60;99.90;;;;;;5076652;28;20243;-82
2022/05/13 04:16:04;;;;;;;10.07;4.03;;;14.70;99.90;;;;;;5077250;28;20196;-81
2022/05/13 04:18:39;;;;;;;6.83;4.13;;;14.70;99.90;;;;;;5063090;28;20188;-82
2022/05/13 04:21:24;;;;;;;4.37;3.97;;;14.80;99.90;;;;;;5081185;28;20637;-81
2022/05/13 04:23:52;;;;;;;8.23;3.70;;;14.90;99.90;;;;;;5063841;28;20203;-82
2022/05/13 04:26:18;;;;;;;5.27;3.73;;;15.00;99.90;;;;;;5082194;28;20212;-82
2022/05/13 04:28:46;;;;;;;8.33;4.33;;;15.10;99.90;;;;;;5063275;28;20176;-81
2022/05/13 04:31:13;;;;;;;5.83;3.63;;;15.10;99.90;;;;;;5081275;28;20659;-81
2022/05/13 04:33:40;;;;;;;5.37;3.63;;;15.20;99.90;;;;;;5063197;28;20533;-81
2022/05/13 04:36:06;;;;;;;4.10;3.40;;;15.20;99.90;;;;;;5063977;28;20675;-81
2022/05/13 04:38:32;;;;;;;5.00;3.73;;;15.20;99.90;;;;;;5065155;28;20185;-82
2022/05/13 04:42:49;;;;;;;4.10;3.70;;;15.30;99.90;;;;;;5083338;28;20173;-81
2022/05/13 04:43:44;;;;;;;7.47;3.33;;;15.30;99.90;;;;;;5081432;28;20223;-82
2022/05/13 04:46:09;;;;;;;4.07;3.40;;;15.30;99.90;;;;;;5063711;28;20674;-81
2022/05/13 04:48:35;;;;;;;5.90;3.47;;;15.40;99.90;;;;;;5082367;28;20189;-82
2022/05/13 04:51:01;;;;;;;3.47;3.10;;;15.40;99.90;;;;;;5081748;28;20192;-81
2022/05/13 04:53:35;;;;;;;4.17;3.20;;;15.50;99.90;;;;;;5064780;28;20197;-81
2022/05/13 04:56:03;;;;;;;7.47;3.27;;;15.50;99.90;;;;;;5082161;28;20160;-81
2022/05/13 04:58:29;;;;;;;4.53;3.23;;;15.50;99.90;;;;;;5081925;28;20607;-81
2022/05/13 05:00:56;;;;;;;3.50;3.20;;;15.50;99.90;;;;;;5062809;28;20180;-82
2022/05/13 05:03:27;;;;;;;4.93;3.23;;;15.60;99.90;;;;;;5062977;28;20200;-81
2022/05/13 05:05:53;;;;;;;4.37;2.97;;;15.60;99.90;;;;;;5080878;28;20189;-81
2022/05/13 05:08:18;;;;;;;4.77;3.83;;;15.60;99.90;;;;;;5080061;28;20172;-81
2022/05/13 05:10:45;;;;;;;6.43;3.43;;;15.70;99.90;;;;;;5062102;28;20654;-82
2022/05/13 05:13:37;;;;;;;5.73;3.63;;;15.70;99.90;;;;;;5079949;28;20579;-82
2022/05/13 05:16:05;;;;;;;6.10;3.20;;;15.80;99.90;;;;;;5078483;28;20612;-82
2022/05/13 05:18:33;;;;;;;7.73;3.73;;;15.80;99.90;;;;;;5061268;28;20543;-82
2022/05/13 05:20:59;;;;;;;4.53;3.50;;;15.90;99.90;;;;;;5078863;28;20208;-82
2022/05/13 05:23:29;;;;;;;4.53;3.93;;;15.90;99.90;;;;;;5078633;28;20200;-82
2022/05/13 05:25:55;;;;;;;4.20;3.60;;;15.90;99.90;;;;;;5078157;28;20237;-82
2022/05/13 05:28:21;;;;;;;5.03;3.50;;;15.90;99.90;;;;;;5076042;28;20169;-82
2022/05/13 05:30:48;;;;;;;4.47;3.27;;;15.90;99.90;;;;;;5078228;28;20502;-82
2022/05/13 05:33:14;;;;;;;8.57;3.83;;;16.00;99.90;;;;;;5081266;28;20704;-82
2022/05/13 05:35:41;;;;;;;4.53;3.47;;;16.00;99.90;;;;;;5079886;28;20180;-82
2022/05/13 05:38:07;;;;;;;5.83;3.80;;;16.00;99.90;;;;;;5080000;28;20189;-82
2022/05/13 05:40:34;;;;;;;4.70;3.47;;;16.10;99.90;;;;;;5061926;28;20262;-82
2022/05/13 05:43:11;;;;;;;7.93;3.37;;;16.30;99.90;;;;;;5079581;28;20565;-82
2022/05/13 05:45:38;;;;;;;3.77;3.37;;;16.30;99.90;;;;;;5079528;28;20175;-82
2022/05/13 05:48:05;;;;;;;5.50;3.57;;;16.30;99.90;;;;;;5061781;28;20212;-82
2022/05/13 05:50:31;;;;;;;4.30;3.67;;;16.40;99.90;;;;;;5061609;28;20177;-82
2022/05/13 05:52:56;;;;;;;6.57;3.97;;;16.30;99.90;;;;;;5079234;28;20211;-82
2022/05/13 05:58:13;;;;;;;5.00;3.30;;;16.50;99.90;;;;;;5080550;28;20180;-82
2022/05/13 06:00:42;;;;;;;5.53;3.17;;;16.50;99.90;;;;;;5079550;28;20175;-82
2022/05/13 06:03:09;;;;;;;5.60;3.80;;;16.60;99.90;;;;;;5061679;28;20201;-82
2022/05/13 06:05:35;;;;;;;6.83;3.20;;;16.60;99.90;;;;;;5061424;28;20186;-82
2022/05/13 06:08:02;;;;;;;5.03;3.80;;;16.60;99.90;;;;;;5079661;28;20193;-83
2022/05/13 06:10:30;;;;;;;7.67;3.47;;;16.60;99.90;;;;;;5061013;28;20180;-82
2022/05/13 06:12:56;;;;;;;3.83;3.33;;;16.70;99.90;;;;;;5061853;28;20196;-82
2022/05/13 06:15:22;;;;;;;5.37;3.63;;;16.70;99.90;;;;;;5079783;28;20169;-81
2022/05/13 06:17:53;;;;;;;6.43;3.70;;;16.70;99.90;;;;;;5061430;28;20181;-81
2022/05/13 06:20:23;;;;;;;5.10;3.60;;;16.80;99.90;;;;;;5061645;28;20185;-84
2022/05/13 06:22:49;;;;;;;5.37;3.13;;;16.70;99.90;;;;;;5081098;28;20185;-84
2022/05/13 06:25:16;;;;;;;4.10;3.70;;;16.70;99.90;;;;;;5080043;28;20306;-84
2022/05/13 06:27:44;;;;;;;5.27;3.47;;;16.70;99.90;;;;;;5062286;28;20204;-84
2022/05/13 06:30:14;;;;;;;3.83;3.00;;;16.80;99.90;;;;;;5062648;28;20178;-84
2022/05/13 06:32:39;;;;;;;4.57;3.40;;;16.90;99.90;;;;;;5061535;28;20628;-84
2022/05/13 06:35:06;;;;;;;7.07;3.70;;;16.90;99.90;;;;;;5061107;28;20232;-84
2022/05/13 06:37:31;;;;;;;6.47;3.77;;;16.90;99.90;;;;;;5061323;28;20194;-84
2022/05/13 06:39:57;;;;;;;7.07;3.43;;;17.00;99.90;;;;;;5078925;28;20260;-84
2022/05/13 06:42:23;;;;;;;4.23;3.07;;;17.30;99.90;;;;;;5079088;28;20180;-84
2022/05/13 06:44:49;;;;;;;5.37;3.33;;;;;;;;;;5078846;28;20206;-84
2022/05/13 06:47:15;;;;;;;5.03;3.10;;;17.80;99.90;;;;;;5079460;28;20671;-84
2022/05/13 06:49:41;;;;;;;4.27;3.07;;;18.00;99.90;;;;;;5060640;28;20201;-84
2022/05/13 06:52:08;;;;;;;3.13;2.83;;;18.00;99.90;;;;;;5080320;28;20175;-83
2022/05/13 06:54:34;;;;;;;4.40;3.10;;;18.00;99.90;;;;;;5060944;28;20200;-84
2022/05/13 06:56:59;;;;;;;3.30;3.00;;;18.10;99.90;;;;;;5080450;28;20267;-85
2022/05/13 06:59:25;;;;;;;4.60;3.23;;;;;;;;;;5063397;28;20188;-84
2022/05/13 07:01:51;;;;;;;8.40;3.03;;;18.00;99.90;;;;;;5063664;28;20544;-84
2022/05/13 07:04:17;;;;;;;5.27;3.40;;;18.10;99.90;;;;;;5061494;28;20203;-84
2022/05/13 07:06:42;;;;;;;7.07;3.43;;;18.20;99.90;;;;;;5062510;28;20279;-86
2022/05/13 07:09:08;;;;;;;6.70;3.20;;;;;;;;;;5062101;28;20175;-85
2022/05/13 07:11:35;;;;;;;4.47;3.20;;;17.80;99.90;;;;;;5062234;28;20537;-84
2022/05/13 07:14:01;;;;;;;5.50;3.50;;;17.80;99.90;;;;;;5063399;28;20582;-83
2022/05/13 07:16:27;;;;;;;6.17;3.20;;;17.90;99.90;;;;;;5088010;28;20186;-83
2022/05/13 07:18:53;;;;;;;8.30;3.50;;;17.80;99.90;;;;;;5068661;28;20203;-83
2022/05/13 07:21:19;;;;;;;5.13;2.87;;;17.80;99.90;;;;;;5077055;28;20641;-84
2022/05/13 07:23:45;;;;;;;3.97;3.47;;;17.90;99.90;;;;;;5058806;28;20203;-84
2022/05/13 07:26:11;;;;;;;7.30;3.30;;;18.00;99.90;;;;;;5077426;28;20179;-83
2022/05/13 07:28:40;;;;;;;5.23;3.80;;;18.00;99.90;;;;;;5059106;28;20179;-83
2022/05/13 07:31:07;;;;;;;5.53;3.30;;;18.00;99.90;;;;;;5057753;28;20227;-83
2022/05/13 07:33:34;;;;;;;4.83;3.90;;;17.90;99.90;;;;;;5057765;28;20253;-84
2022/05/13 07:35:59;;;;;;;7.90;3.53;;;17.90;99.90;;;;;;5057897;28;20179;-84
2022/05/13 07:38:27;;;;;;;5.43;3.30;;;;;;;;;;5074605;28;20185;-84
2022/05/13 07:43:37;;;;;;;4.67;3.50;;;17.70;99.90;;;;;;5079478;28;20236;-84
2022/05/13 07:46:06;;;;;;;9.03;3.63;;;17.70;99.90;;;;;;5060502;28;20182;-84
2022/05/13 07:48:31;;;;;;;4.00;3.17;;;17.80;99.90;;;;;;5060856;28;20216;-85
2022/05/13 07:50:57;;;;;;;7.70;3.03;;;17.90;99.90;;;;;;5058829;28;20174;-84
2022/05/13 07:53:23;;;;;;;7.83;3.63;;;;;;;;;;5058745;28;20198;-84
2022/05/13 07:55:49;;;;;;;4.87;3.40;;;17.80;99.90;;;;;;5060418;28;20182;-84
2022/05/13 07:58:16;;;;;;;8.70;3.43;;;17.80;99.90;;;;;;5078301;28;20634;-84
2022/05/13 08:00:43;;;;;;;4.73;3.17;;;17.70;99.90;;;;;;5060039;28;20192;-85
2022/05/13 08:03:12;;;;;;;5.53;3.47;;;17.30;99.90;;;;;;5059647;28;20212;-83
2022/05/13 08:05:42;;;;;;;5.17;3.37;;;17.30;99.90;;;;;;5059190;28;20205;-84
2022/05/13 08:08:13;;;;;;;8.63;4.60;;;17.10;99.90;;;;;;5058829;28;20201;-84
2022/05/13 08:10:43;;;;;;;5.67;3.70;;;17.00;99.90;;;;;;5077325;28;20163;-84
2022/05/13 08:13:09;;;;;;;9.07;3.67;;;16.60;99.90;;;;;;5059295;28;20259;-84
2022/05/13 08:15:35;;;;;;;7.37;3.93;;;16.60;99.90;;;;;;5059822;28;20169;-84
2022/05/13 08:18:01;;;;;;;4.17;3.47;;;16.60;99.90;;;;;;5059873;28;20186;-84
2022/05/13 08:20:27;;;;;;;6.50;4.00;;;16.60;99.90;;;;;;5059468;28;20293;-85
2022/05/13 08:22:54;;;;;;;7.80;3.90;;;16.90;99.90;;;;;;5077806;28;20174;-85
2022/05/13 08:25:21;;;;;;;7.67;3.67;;;16.90;99.90;;;;;;5060105;28;20185;-85
2022/05/13 08:27:47;;;;;;;4.67;3.90;;;17.10;99.90;;;;;;5078633;28;20202;-85
2022/05/13 08:30:14;;;;;;;4.37;3.60;;;17.30;99.90;;;;;;5059824;28;20258;-85
2022/05/13 08:32:40;;;;;;;4.80;3.60;;;17.50;99.90;;;;;;5059774;28;20178;-84
2022/05/13 08:35:06;;;;;;;4.53;3.10;;;17.80;99.90;;;;;;5060685;28;20208;-84
2022/05/13 08:37:31;;;;;;;4.40;3.97;;;17.90;99.90;;;;;;5060195;28;20178;-85
2022/05/13 08:40:00;;;;;;;5.70;3.10;;;17.90;99.90;;;;;;5059647;28;20175;-84
2022/05/13 08:42:46;;;;;;;4.03;3.63;;;17.80;99.90;;;;;;5060816;28;20181;-84
2022/05/13 08:45:14;;;;;;;5.10;3.33;;;17.60;99.90;;;;;;5060537;28;20178;-84
2022/05/13 08:47:55;;;;;;;5.43;3.47;;;17.50;99.90;;;;;;5059718;28;20569;-84
2022/05/13 08:50:49;;;;;;;5.37;3.33;;;17.50;99.90;;;;;;5078003;28;20174;-85
2022/05/13 08:53:41;;;;;;;3.67;3.03;;;17.50;99.90;;;;;;5059453;28;20199;-84
2022/05/13 08:56:10;;;;;;;4.17;2.70;;;17.60;99.90;;;;;;5059154;28;20161;-84
2022/05/13 08:58:45;;;;;;;6.23;3.17;;;17.60;99.90;;;;;;5077992;28;20176;-84
2022/05/13 09:01:23;;;;;;;5.93;3.17;;;17.70;99.90;;;;;;5059330;28;20168;-85
2022/05/13 09:03:59;;;;;;;4.37;3.00;;;18.00;99.90;;;;;;5079358;28;20194;-84
2022/05/13 09:06:39;;;;;;;5.47;3.40;;;18.00;99.90;;;;;;5062953;28;20196;-86
2022/05/13 09:09:08;;;;;;;6.43;3.20;;;18.00;99.90;;;;;;5062558;28;20178;-86
2022/05/13 09:11:51;;;;;;;5.27;3.47;;;18.10;99.90;;;;;;5079855;28;20172;-83
2022/05/13 09:14:45;;;;;;;4.33;3.27;;;18.10;99.90;;;;;;5079554;28;20209;-84
2022/05/13 09:17:11;;;;;;;3.93;3.43;;;17.90;99.90;;;;;;5061813;28;20170;-83
2022/05/13 09:19:47;;;;;;;6.63;3.50;;;17.90;99.90;;;;;;5079378;28;20187;-83
2022/05/13 09:22:13;;;;;;;3.13;2.60;;;17.90;99.90;;;;;;5079859;28;20158;-84
2022/05/13 09:24:40;;;;;;;5.33;3.57;;;17.90;99.90;;;;;;5080296;28;20218;-84
2022/05/13 09:27:05;;;;;;;4.97;3.53;;;17.90;99.90;;;;;;5079601;28;20199;-84
2022/05/13 09:29:45;;;;;;;6.67;3.20;;;17.90;99.90;;;;;;5061173;28;20179;-85
2022/05/13 09:32:30;;;;;;;3.70;3.03;;;17.90;99.90;;;;;;5062419;28;20200;-83
2022/05/13 09:35:35;;;;;;;4.27;3.73;;;17.80;99.90;;;;;;5060869;28;20220;-83
2022/05/13 09:38:16;;;;;;;5.60;3.80;;;17.70;99.90;;;;;;5060344;28;20183;-82
2022/05/13 09:40:55;;;;;;;5.50;4.27;;;17.60;99.90;;;;;;5060092;28;20178;-83
2022/05/13 09:43:43;;;;;;;8.17;4.40;;;17.50;99.90;;;;;;5059875;28;20210;-84
2022/05/13 09:46:20;;;;;;;6.60;3.63;;;17.60;99.90;;;;;;5059875;28;20180;-83
2022/05/13 09:49:01;;;;;;;5.00;4.40;;;17.50;99.90;;;;;;5059587;28;20177;-84
2022/05/13 09:51:40;;;;;;;5.43;4.30;;;17.50;99.90;;;;;;5076150;28;20587;-84
2022/05/13 09:54:16;;;;;;;6.10;3.60;;;17.60;99.90;;;;;;5059718;28;20230;-84
2022/05/13 09:56:48;;;;;;;6.97;4.57;;;17.60;99.90;;;;;;5081015;28;20235;-85
2022/05/13 09:59:23;;;;;;;5.33;3.93;;;17.70;99.90;;;;;;5081010;28;20194;-84
2022/05/13 10:01:50;;;;;;;5.77;4.00;;;17.70;99.90;;;;;;5062831;28;20678;-85
2022/05/13 10:04:26;;;;;;;7.77;3.97;;;17.70;99.90;;;;;;5081986;28;20205;-84
2022/05/13 10:07:05;;;;;;;5.90;4.03;;;17.70;99.90;;;;;;5065744;28;20684;-85
2022/05/13 10:15:39;;;;;;;4.47;3.70;;;17.30;99.90;;;;;;5079681;28;20236;-84
2022/05/13 10:18:24;;;;;;;4.60;3.77;;;17.50;99.90;;;;;;5061619;28;20182;-84
2022/05/13 10:20:55;;;;;;;6.20;3.80;;;17.50;99.90;;;;;;5061953;28;20177;-84
2022/05/13 10:23:45;;;;;;;4.43;3.67;;;17.60;99.90;;;;;;5080729;28;20195;-84
2022/05/13 10:26:15;;;;;;;6.00;4.00;;;17.70;99.90;;;;;;5079916;28;20258;-84
2022/05/13 10:28:51;;;;;;;5.30;3.57;;;17.90;99.90;;;;;;5061298;28;20188;-84
2022/05/13 10:31:20;;;;;;;6.97;3.97;;;17.90;99.90;;;;;;5061271;28;20170;-83
2022/05/13 10:33:59;;;;;;;4.77;3.70;;;17.90;99.90;;;;;;5061518;28;20672;-84
2022/05/13 10:36:51;;;;;;;4.87;3.33;;;17.90;99.90;;;;;;5079211;28;20202;-84
2022/05/13 10:39:24;;;;;;;5.17;3.27;;;17.90;99.90;;;;;;5079452;28;20208;-83
2022/05/13 10:42:03;;;;;;;5.37;3.50;;;17.90;99.90;;;;;;5081770;28;20161;-84
2022/05/13 10:44:43;;;;;;;5.77;3.50;;;17.90;99.90;;;;;;5062585;28;20677;-84
2022/05/13 10:47:32;;;;;;;3.77;3.00;;;17.90;99.90;;;;;;5062209;28;20202;-84
2022/05/13 10:49:59;;;;;;;4.37;3.67;;;17.80;99.90;;;;;;5080183;28;20237;-84
2022/05/13 10:53:00;;;;;;;3.80;2.90;;;17.80;99.90;;;;;;5061703;28;20241;-84
2022/05/13 10:55:50;;;;;;;3.03;2.73;;;17.60;99.90;;;;;;5022300;28;20194;-84
2022/05/13 10:58:18;;;;;;;3.23;2.50;;;17.30;99.90;;;;;;5065211;28;20192;-83
2022/05/13 11:01:29;;;;;;;3.27;2.40;;;17.00;99.90;;;;;;5090965;28;20184;-84
2022/05/13 11:04:13;;;;;;;3.47;2.60;;;16.60;99.90;;;;;;5061719;28;20203;-84
2022/05/13 11:06:56;;;;;;;5.43;2.80;;;16.50;99.90;;;;;;5077927;28;20194;-84
2022/05/13 11:09:46;;;;;;;6.63;2.10;;;16.40;99.90;;;;;;5077692;28;20521;-84
2022/05/13 11:12:42;;;;;;;4.73;2.50;;;16.30;99.90;;;;;;5059259;28;20168;-84
2022/05/13 11:15:27;;;;;;;2.63;1.97;;;16.20;99.90;;;;;;5077322;28;20201;-84
2022/05/13 11:18:07;;;;;;;1.90;1.60;;;16.20;99.90;;;;;;5076986;28;20222;-84
2022/05/13 11:20:44;;;;;;;2.70;1.97;;;16.20;99.90;;;;;;5076730;28;20199;-84
2022/05/13 11:23:19;;;;;;;2.70;2.00;;;16.20;99.90;;;;;;5058914;28;20582;-84
2022/05/13 11:26:18;;;;;;;3.83;1.80;;;16.20;99.90;;;;;;5058722;28;20186;-84
2022/05/13 11:28:59;;;;;;;3.07;1.97;;;16.00;99.90;;;;;;5055329;28;20198;-84
2022/05/13 11:31:41;;;;;;;2.90;1.80;;;16.30;99.90;;;;;;5058733;28;20166;-84
2022/05/13 11:34:37;;;;;;;2.20;2.00;;;16.60;99.90;;;;;;5059600;28;20272;-84
2022/05/13 11:37:05;;;;;;;3.13;1.90;;;16.80;99.90;;;;;;5054013;28;20183;-85
2022/05/13 11:39:49;;;;;;;2.00;1.80;;;16.90;99.90;;;;;;5076702;28;20250;-85
2022/05/13 11:42:33;;;;;;;2.73;2.10;;;16.80;99.90;;;;;;5059270;28;20661;-84
2022/05/13 11:45:23;;;;;;;2.20;2.00;;;16.50;99.90;;;;;;5058862;28;20411;-84
2022/05/13 11:47:56;;;;;;;1.73;1.63;;;16.30;99.90;;;;;;5059123;28;20240;-85
2022/05/13 11:50:27;;;;;;;2.07;1.70;;;16.30;99.90;;;;;;5060412;28;20572;-84
2022/05/13 11:52:57;;;;;;;2.77;1.90;;;16.10;99.90;;;;;;5077901;28;20198;-84
2022/05/13 11:55:29;;;;;;;2.70;2.10;;;16.10;99.90;;;;;;5077572;28;20242;-84
2022/05/13 11:57:55;;;;;;;2.70;2.07;;;16.10;99.90;;;;;;5077082;28;20247;-84
2022/05/13 12:00:25;;;;;;;3.60;1.73;;;16.10;99.90;;;;;;5056818;28;20210;-85
2022/05/13 12:02:55;;;;;;;3.40;1.80;;;16.00;99.90;;;;;;5056499;28;20217;-85
2022/05/13 12:05:21;;;;;;;2.10;1.73;;;16.00;99.90;;;;;;5078138;28;20179;-84
2022/05/13 12:08:04;;;;;;;2.27;2.07;;;15.90;99.90;;;;;;5061060;28;20232;-85
2022/05/13 12:10:59;;;;;;;2.00;1.80;;;16.10;99.90;;;;;;5059987;28;20153;-85
2022/05/13 12:13:39;;;;;;;3.23;2.10;;;16.10;99.90;;;;;;5059541;28;20213;-85
2022/05/13 12:16:36;;;;;;;2.23;1.90;;;15.90;99.90;;;;;;5059827;28;20648;-85
2022/05/13 12:19:21;;;;;;;3.20;2.37;;;16.00;99.90;;;;;;5074079;28;20234;-85
2022/05/13 12:22:11;;;;;;;1.93;1.70;;;16.10;99.90;;;;;;5060314;28;20254;-85
2022/05/13 12:25:26;;;;;;;3.33;2.23;;;16.10;99.90;;;;;;5078138;28;20271;-85
2022/05/13 12:28:09;;;;;;;2.97;2.33;;;16.30;99.90;;;;;;5016858;28;20187;-86
2022/05/13 12:30:45;;;;;;;2.20;2.00;;;16.50;99.90;;;;;;5016624;28;20169;-85
2022/05/13 12:33:20;;;;;;;2.20;2.00;;;16.60;99.90;;;;;;5062605;28;20258;-85
2022/05/13 12:39:14;;;;;;;2.47;2.10;;;16.50;99.90;;;;;;5082484;28;20223;-86
2022/05/13 12:41:51;;;;;;;4.00;2.57;;;16.40;99.90;;;;;;5066296;28;20185;-86
2022/05/13 12:44:32;;;;;;;3.60;2.57;;;16.20;99.90;;;;;;5065376;28;20202;-86
2022/05/13 12:47:13;;;;;;;2.80;2.60;;;16.20;99.90;;;;;;5083402;28;20180;-85
2022/05/13 12:49:53;;;;;;;2.40;2.20;;;16.20;99.90;;;;;;5064952;28;20177;-86
2022/05/13 12:52:28;;;;;;;4.40;2.13;;;16.30;99.90;;;;;;5064583;28;20172;-86
2022/05/13 12:55:08;;;;;;;3.13;2.63;;;16.20;99.90;;;;;;5084660;28;20252;-85
2022/05/13 12:57:39;;;;;;;3.57;2.83;;;16.30;99.90;;;;;;5080803;28;20161;-85
2022/05/13 13:00:19;;;;;;;2.93;2.73;;;16.30;99.90;;;;;;5081233;28;20189;-85
2022/05/13 13:02:49;;;;;;;3.17;2.47;;;16.60;99.90;;;;;;5063348;28;20175;-86
2022/05/13 13:05:24;;;;;;;2.97;2.67;;;17.10;99.90;;;;;;5063241;28;20166;-85
2022/05/13 13:07:54;;;;;;;3.70;2.77;;;17.60;99.90;;;;;;5063713;28;20225;-86
2022/05/13 13:10:22;;;;;;;2.60;2.40;;;17.60;99.90;;;;;;5081859;28;20169;-84
2022/05/13 13:12:56;;;;;;;3.20;2.63;;;17.20;99.90;;;;;;5064796;28;20191;-85
2022/05/13 13:15:34;;;;;;;3.50;3.00;;;17.20;99.90;;;;;;5063988;28;20172;-83
2022/05/13 13:18:05;;;;;;;3.70;2.73;;;17.40;99.90;;;;;;5065582;28;20184;-86
2022/05/13 13:20:32;;;;;;;4.23;3.27;;;17.60;99.90;;;;;;5083344;28;20159;-86
2022/05/13 13:23:04;;;;;;;4.63;3.30;;;18.70;99.90;;;;;;5067577;28;20545;-87
2022/05/13 13:25:37;;;;;;;5.90;3.00;;;18.70;99.90;;;;;;5066962;28;20213;-88
2022/05/13 13:28:22;;;;;;;4.63;3.40;;;18.60;99.90;;;;;;5075664;28;20174;-87
2022/05/13 13:31:00;;;;;;;3.10;2.80;;;18.40;99.90;;;;;;5066363;28;20171;-87
2022/05/13 13:33:28;;;;;;;3.80;3.17;;;18.90;99.90;;;;;;5064381;28;20190;-87
2022/05/13 13:36:26;;;;;;;3.90;3.50;;;19.80;99.90;;;;;;5064347;28;20519;-88
2022/05/13 13:38:55;;;;;;;3.90;3.60;;;20.70;99.90;;;;;;5074786;28;20220;-87
2022/05/13 13:41:32;;;;;;;3.47;3.17;;;22.20;99.90;;;;;;5066528;28;20304;-88